createdAt,value
2018-04-13T00:01:47.717Z,116.60
2018-04-13T00:04:15.241Z,115.40
2018-04-13T00:06:43.547Z,114.70
2018-04-13T00:09:17.359Z,109.70
2018-04-13T00:11:44.890Z,109.53
2018-04-13T00:14:13.192Z,99.37
2018-04-13T00:16:40.763Z,96.03
2018-04-13T00:19:14.162Z,100.70
2018-04-13T00:21:47.603Z,102.50
2018-04-13T00:24:15.956Z,105.30
2018-04-13T00:26:43.605Z,107.80
2018-04-13T00:29:17.170Z,111.60
2018-04-13T00:31:44.740Z,114.73
2018-04-13T00:34:23.888Z,105.27
2018-04-13T00:36:57.297Z,97.10
2018-04-13T00:39:24.865Z,95.20
2018-04-13T00:41:53.205Z,96.50
2018-04-13T00:44:20.736Z,93.27
2018-04-13T00:46:49.369Z,96.43
2018-04-13T00:49:16.912Z,103.43
2018-04-13T00:51:50.166Z,109.40
2018-04-13T00:54:19.089Z,108.57
2018-04-13T00:56:52.504Z,107.67
2018-04-13T00:59:20.979Z,97.37
2018-04-13T01:01:48.517Z,93.33
2018-04-13T01:04:16.058Z,92.37
2018-04-13T01:06:49.240Z,89.00
2018-04-13T01:09:23.700Z,86.93
2018-04-13T01:11:56.922Z,92.73
2018-04-13T01:14:24.492Z,98.23
2018-04-13T01:16:52.097Z,102.57
2018-04-13T01:19:19.610Z,107.40
2018-04-13T01:21:47.180Z,115.97
2018-04-13T01:24:15.472Z,125.13
2018-04-13T01:26:48.987Z,123.57
2018-04-13T01:29:16.524Z,132.67
2018-04-13T01:31:44.050Z,124.20
2018-04-13T01:34:11.661Z,113.33
2018-04-13T01:36:39.181Z,111.73
2018-04-13T01:39:13.447Z,99.97
2018-04-13T01:41:40.996Z,94.67
2018-04-13T01:44:20.273Z,97.70
2018-04-13T01:46:49.340Z,96.77
2018-04-13T01:49:16.878Z,97.77
2018-04-13T01:51:44.435Z,107.40
2018-04-13T01:54:11.957Z,113.60
2018-04-13T01:56:40.288Z,114.67
2018-04-13T01:59:13.644Z,110.70
2018-04-13T02:01:47.552Z,111.70
2018-04-13T02:04:15.875Z,116.67
2018-04-13T02:06:43.426Z,116.80
2018-04-13T02:09:10.955Z,107.00
2018-04-13T02:11:38.523Z,105.67
2018-04-13T02:14:11.666Z,97.27
2018-04-13T02:16:39.243Z,99.70
2018-04-13T02:19:07.552Z,93.77
2018-04-13T02:21:41.270Z,103.27
2018-04-13T02:24:14.498Z,108.37
2018-04-13T02:26:42.049Z,113.37
2018-04-13T02:29:09.568Z,119.40
2018-04-13T02:31:37.087Z,129.37
2018-04-13T02:34:11.226Z,137.90
2018-04-13T02:36:44.739Z,148.27
2018-04-13T02:39:12.406Z,151.90
2018-04-13T02:41:39.953Z,146.60
2018-04-13T02:44:07.472Z,150.37
2018-04-13T02:46:35.797Z,150.10
2018-04-13T02:49:03.322Z,150.60
2018-04-13T02:51:31.623Z,149.97
2018-04-13T02:53:59.186Z,150.80
2018-04-13T02:56:32.879Z,141.70
2018-04-13T02:59:00.430Z,141.40
2018-04-13T03:01:33.716Z,138.37
2018-04-13T03:04:01.288Z,138.40
2018-04-13T03:06:34.994Z,126.47
2018-04-13T03:09:02.840Z,123.50
2018-04-13T03:11:30.421Z,116.63
2018-04-13T03:14:04.081Z,114.50
2018-04-13T03:16:38.390Z,115.20
2018-04-13T03:19:06.016Z,108.70
2018-04-13T03:21:33.571Z,102.63
2018-04-13T03:24:06.766Z,97.33
2018-04-13T03:26:40.172Z,102.63
2018-04-13T03:29:13.747Z,104.17
2018-04-13T03:31:41.267Z,102.60
2018-04-13T03:34:15.477Z,107.80
2018-04-13T03:36:43.776Z,107.77
2018-04-13T03:39:11.316Z,101.70
2018-04-13T03:41:45.667Z,98.67
2018-04-13T03:44:13.244Z,103.47
2018-04-13T03:46:40.778Z,102.47
2018-04-13T03:49:14.280Z,108.97
2018-04-13T03:51:41.811Z,107.97
2018-04-13T03:54:10.128Z,97.73
2018-04-13T03:56:38.056Z,99.37
2018-04-13T03:59:11.984Z,126.57
2018-04-13T04:01:45.230Z,132.20
2018-04-13T04:04:18.514Z,145.47
2018-04-13T04:06:51.934Z,146.17
2018-04-13T04:09:20.251Z,146.70
2018-04-13T04:11:53.875Z,120.60
2018-04-13T04:14:21.414Z,109.63
2018-04-13T04:16:48.929Z,110.43
2018-04-13T04:19:23.491Z,132.20
2018-04-13T04:22:08.741Z,141.60
2018-04-13T04:24:54.766Z,136.77
2018-04-13T04:27:22.329Z,129.37
2018-04-13T04:29:49.884Z,113.57
2018-04-13T04:32:17.439Z,107.90
2018-04-13T04:34:44.971Z,114.80
2018-04-13T04:37:12.551Z,128.30
2018-04-13T04:39:45.999Z,143.27
2018-04-13T04:42:20.261Z,127.40
2018-04-13T04:44:47.918Z,111.47
2018-04-13T04:47:15.438Z,118.63
2018-04-13T04:49:49.714Z,140.93
2018-04-13T04:52:23.155Z,149.83
2018-04-13T04:54:51.476Z,160.53
2018-04-13T04:57:24.879Z,176.60
2018-04-13T04:59:52.437Z,184.37
2018-04-13T05:02:19.973Z,189.37
2018-04-13T05:04:53.515Z,183.60
2018-04-13T05:07:26.990Z,190.83
2018-04-13T05:10:00.135Z,172.73
2018-04-13T05:12:28.460Z,182.60
2018-04-13T05:14:56.004Z,178.70
2018-04-13T05:17:29.311Z,180.70
2018-04-13T05:19:56.830Z,170.67
2018-04-13T05:22:25.126Z,170.50
2018-04-13T05:24:52.697Z,148.63
2018-04-13T05:27:20.254Z,146.90
2018-04-13T05:29:47.772Z,145.87
2018-04-13T05:32:27.901Z,134.47
2018-04-13T05:35:01.128Z,121.60
2018-04-13T05:37:28.681Z,121.43
2018-04-13T05:39:56.998Z,115.77
2018-04-13T05:42:24.532Z,114.77
2018-04-13T05:44:58.305Z,112.50
2018-04-13T05:47:26.604Z,111.00
2018-04-13T05:49:54.140Z,110.00
2018-04-13T05:52:28.358Z,116.07
2018-04-13T05:54:56.684Z,108.30
2018-04-13T05:57:24.371Z,110.13
2018-04-13T05:59:58.228Z,109.40
2018-04-13T06:02:25.801Z,103.63
2018-04-13T06:04:59.414Z,109.87
2018-04-13T06:07:32.897Z,115.27
2018-04-13T06:10:00.458Z,121.07
2018-04-13T06:12:28.014Z,125.47
2018-04-13T06:14:55.548Z,130.30
2018-04-13T06:17:23.950Z,128.00
2018-04-13T06:19:51.505Z,126.47
2018-04-13T06:22:19.036Z,127.23
2018-04-13T06:24:47.373Z,126.13
2018-04-13T06:27:20.666Z,125.33
2018-04-13T06:29:48.225Z,123.53
2018-04-13T06:32:15.751Z,120.77
2018-04-13T06:34:48.995Z,124.70
2018-04-13T06:37:16.552Z,120.10
2018-04-13T06:39:44.181Z,123.03
2018-04-13T06:42:11.834Z,116.17
2018-04-13T06:44:39.375Z,112.63
2018-04-13T06:47:12.973Z,112.20
2018-04-13T06:49:40.539Z,107.30
2018-04-13T06:52:08.076Z,105.60
2018-04-13T06:54:36.740Z,104.20
2018-04-13T06:57:04.350Z,105.30
2018-04-13T06:59:31.892Z,105.67
2018-04-13T07:02:05.425Z,102.13
2018-04-13T07:04:32.970Z,98.67
2018-04-13T07:07:00.506Z,98.10
2018-04-13T07:09:28.085Z,101.00
2018-04-13T07:11:55.619Z,99.80
2018-04-13T07:14:23.198Z,93.60
2018-04-13T07:16:50.750Z,99.40
2018-04-13T07:19:18.351Z,101.03
2018-04-13T07:21:51.863Z,99.60
2018-04-13T07:24:19.427Z,96.63
2018-04-13T07:26:52.873Z,100.03
2018-04-13T07:29:20.394Z,98.90
2018-04-13T07:31:48.760Z,99.70
2018-04-13T07:34:22.629Z,95.60
2018-04-13T07:36:49.674Z,94.13
2018-04-13T07:39:17.283Z,92.00
2018-04-13T07:41:51.189Z,90.03
2018-04-13T07:44:25.076Z,91.87
2018-04-13T07:46:54.522Z,95.83
2018-04-13T07:49:27.552Z,94.87
2018-04-13T07:51:55.501Z,94.67
2018-04-13T07:54:22.747Z,93.10
2018-04-13T07:56:56.366Z,94.07
2018-04-13T07:59:23.915Z,96.33
2018-04-13T08:01:51.479Z,94.57
2018-04-13T08:04:24.931Z,95.60
2018-04-13T08:06:59.054Z,97.03
2018-04-13T08:09:26.643Z,93.27
2018-04-13T08:11:54.420Z,89.30
2018-04-13T08:14:21.744Z,85.90
2018-04-13T08:16:54.969Z,84.90
2018-04-13T08:19:28.260Z,82.63
2018-04-13T08:22:01.503Z,82.60
2018-04-13T08:24:29.095Z,80.33
2018-04-13T08:26:56.656Z,80.13
2018-04-13T08:29:24.201Z,82.50
2018-04-13T08:31:51.729Z,75.57
2018-04-13T08:34:25.051Z,75.97
2018-04-13T08:36:52.612Z,76.57
2018-04-13T08:39:20.162Z,76.00
2018-04-13T08:41:47.754Z,79.13
2018-04-13T08:44:26.889Z,80.70
2018-04-13T08:46:54.462Z,70.83
2018-04-13T08:49:27.579Z,67.97
2018-04-13T08:52:01.673Z,69.23
2018-04-13T08:54:29.210Z,59.93
2018-04-13T08:56:56.734Z,64.10
2018-04-13T08:59:24.366Z,63.67
2018-04-13T09:01:58.508Z,63.80
2018-04-13T09:04:32.429Z,58.07
2018-04-13T09:07:05.706Z,59.37
2018-04-13T09:09:33.264Z,53.50
2018-04-13T09:12:00.781Z,54.30
2018-04-13T09:14:40.855Z,48.33
2018-04-13T09:17:08.443Z,53.47
2018-04-13T09:19:35.968Z,52.03
2018-04-13T09:22:09.505Z,52.93
2018-04-13T09:24:42.897Z,54.17
2018-04-13T09:27:22.022Z,51.80
2018-04-13T09:29:49.571Z,54.17
2018-04-13T09:32:17.137Z,46.93
2018-04-13T09:34:44.788Z,47.63
2018-04-13T09:37:12.301Z,45.40
2018-04-13T09:39:39.831Z,43.47
2018-04-13T09:42:07.488Z,40.43
2018-04-13T09:44:35.019Z,41.40
2018-04-13T09:47:02.539Z,44.57
2018-04-13T09:49:30.091Z,37.30
2018-04-13T09:52:03.405Z,34.80
2018-04-13T09:54:31.747Z,30.97
2018-04-13T09:56:59.292Z,35.83
2018-04-13T09:59:32.450Z,43.83
2018-04-13T10:02:05.784Z,35.10
2018-04-13T10:04:41.197Z,37.53
2018-04-13T10:07:08.737Z,31.97
2018-04-13T10:09:36.325Z,29.17
2018-04-13T10:12:03.885Z,35.63
2018-04-13T10:14:37.452Z,31.20
2018-04-13T10:17:05.867Z,30.40
2018-04-13T10:19:33.389Z,27.80
2018-04-13T10:22:01.720Z,28.90
2018-04-13T10:24:35.407Z,27.83
2018-04-13T10:27:08.685Z,27.37
2018-04-13T10:29:36.233Z,29.10
2018-04-13T10:32:09.651Z,28.30
2018-04-13T10:34:37.517Z,26.30
2018-04-13T10:37:16.492Z,25.93
2018-04-13T10:39:44.807Z,27.20
2018-04-13T10:42:18.102Z,25.70
2018-04-13T10:44:51.587Z,27.53
2018-04-13T10:47:19.101Z,19.60
2018-04-13T10:49:46.711Z,22.17
2018-04-13T10:52:14.274Z,23.17
2018-04-13T10:54:41.793Z,24.67
2018-04-13T10:57:10.081Z,28.57
2018-04-13T10:59:38.384Z,23.30
2018-04-13T11:02:11.863Z,28.50
2018-04-13T11:04:39.448Z,27.17
2018-04-13T11:07:06.972Z,23.70
2018-04-13T11:09:41.206Z,24.00
2018-04-13T11:12:08.725Z,25.90
2018-04-13T11:14:36.248Z,27.27
2018-04-13T11:17:03.893Z,26.90
2018-04-13T11:19:43.485Z,28.73
2018-04-13T11:22:11.904Z,18.80
2018-04-13T11:24:39.433Z,24.57
2018-04-13T11:27:07.719Z,25.43
2018-04-13T11:29:36.052Z,23.90
2018-04-13T11:32:05.204Z,24.60
2018-04-13T11:34:38.639Z,21.00
2018-04-13T11:37:11.932Z,20.00
2018-04-13T11:39:39.476Z,20.00
2018-04-13T11:42:06.991Z,21.97
2018-04-13T11:44:41.251Z,20.97
2018-04-13T11:47:08.784Z,21.20
2018-04-13T11:49:42.150Z,22.17
2018-04-13T11:52:10.439Z,21.17
2018-04-13T11:54:39.368Z,18.57
2018-04-13T11:57:06.948Z,13.37
2018-04-13T11:59:40.448Z,13.70
2018-04-13T12:02:13.708Z,13.27
2018-04-13T12:04:41.241Z,11.53
2018-04-13T12:07:08.820Z,15.40
2018-04-13T12:09:36.388Z,13.50
2018-04-13T12:12:03.962Z,10.83
2018-04-13T12:14:31.532Z,13.23
2018-04-13T12:16:59.171Z,10.90
2018-04-13T12:19:26.690Z,12.20
2018-04-13T12:21:55.007Z,11.50
2018-04-13T12:24:22.567Z,12.50
2018-04-13T12:26:50.126Z,11.97
2018-04-13T12:29:17.645Z,12.47
2018-04-13T12:31:45.966Z,11.50
2018-04-13T12:34:13.502Z,11.63
2018-04-13T12:36:41.038Z,11.37
2018-04-13T12:39:09.459Z,12.80
2018-04-13T12:41:36.989Z,12.30
2018-04-13T12:44:04.520Z,12.80
2018-04-13T12:46:32.855Z,11.87
2018-04-13T12:49:00.392Z,11.77
2018-04-13T12:51:27.952Z,12.37
2018-04-13T12:53:55.519Z,12.37
2018-04-13T12:56:23.120Z,13.33
2018-04-13T12:58:50.676Z,12.10
2018-04-13T13:01:18.294Z,10.97
2018-04-13T13:03:45.825Z,11.20
2018-04-13T13:06:14.103Z,11.03
2018-04-13T13:08:42.538Z,11.03
2018-04-13T13:11:10.321Z,11.23
2018-04-13T13:13:37.925Z,13.03
2018-04-13T13:16:05.483Z,12.77
2018-04-13T13:18:33.013Z,12.97
2018-04-13T13:21:01.316Z,12.93
2018-04-13T13:23:28.892Z,12.90
2018-04-13T13:25:56.435Z,13.60
2018-04-13T13:28:23.941Z,14.00
2018-04-13T13:30:51.503Z,14.83
2018-04-13T13:33:19.040Z,14.87
2018-04-13T13:35:46.581Z,14.47
2018-04-13T13:38:14.153Z,13.80
2018-04-13T13:40:41.689Z,15.40
2018-04-13T13:43:09.211Z,14.73
2018-04-13T13:45:37.930Z,15.97
2018-04-13T13:48:05.501Z,15.93
2018-04-13T13:50:33.038Z,16.43
2018-04-13T13:53:00.623Z,16.50
2018-04-13T13:55:28.155Z,17.00
2018-04-13T13:57:55.674Z,16.77
2018-04-13T14:00:23.247Z,16.20
2018-04-13T14:02:51.564Z,17.37
2018-04-13T14:05:19.103Z,16.43
2018-04-13T14:07:46.658Z,17.43
2018-04-13T14:10:14.241Z,17.10
2018-04-13T14:12:41.756Z,17.70
2018-04-13T14:15:10.074Z,17.57
2018-04-13T14:17:37.635Z,17.13
2018-04-13T14:20:05.160Z,16.97
2018-04-13T14:22:32.729Z,18.67
2018-04-13T14:25:00.246Z,18.27
2018-04-13T14:27:27.876Z,17.57
2018-04-13T14:29:55.440Z,18.60
2018-04-13T14:32:22.979Z,17.43
2018-04-13T14:34:50.521Z,18.00
2018-04-13T14:37:18.096Z,16.00
2018-04-13T14:39:45.656Z,16.80
2018-04-13T14:42:13.223Z,15.63
2018-04-13T14:44:40.832Z,16.33
2018-04-13T14:47:08.454Z,13.60
2018-04-13T14:49:35.992Z,13.60
2018-04-13T14:52:03.653Z,13.30
2018-04-13T14:54:31.232Z,13.33
2018-04-13T14:56:58.781Z,11.93
2018-04-13T14:59:26.327Z,12.70
2018-04-13T15:01:53.883Z,11.90
2018-04-13T15:04:21.408Z,11.43
2018-04-13T15:06:49.721Z,11.63
2018-04-13T15:09:17.261Z,10.30
2018-04-13T15:11:44.786Z,9.97
2018-04-13T15:14:12.422Z,11.27
2018-04-13T15:16:39.941Z,11.00
2018-04-13T15:19:07.468Z,10.70
2018-04-13T15:21:35.083Z,10.70
2018-04-13T15:24:02.645Z,12.00
2018-04-13T15:26:30.179Z,11.83
2018-04-13T15:28:57.721Z,10.73
2018-04-13T15:31:26.001Z,12.27
2018-04-13T15:33:54.300Z,12.80
2018-04-13T15:36:21.976Z,12.50
2018-04-13T15:38:49.539Z,13.83
2018-04-13T15:41:17.088Z,14.00
2018-04-13T15:43:44.761Z,12.73
2018-04-13T15:46:12.295Z,14.20
2018-04-13T15:48:39.872Z,14.17
2018-04-13T15:51:07.418Z,15.20
2018-04-13T15:53:34.934Z,14.33
2018-04-13T15:56:03.254Z,16.27
2018-04-13T15:58:30.833Z,17.10
2018-04-13T16:00:58.362Z,17.60
2018-04-13T16:03:25.881Z,16.93
2018-04-13T16:05:53.493Z,17.20
2018-04-13T16:08:21.059Z,17.23
2018-04-13T16:10:48.602Z,18.63
2018-04-13T16:13:16.142Z,17.03
2018-04-13T16:15:43.760Z,18.57
2018-04-13T16:18:11.277Z,17.73
2018-04-13T16:20:39.348Z,19.77
2018-04-13T16:23:06.897Z,18.83
2018-04-13T16:25:34.427Z,20.10
2018-04-13T16:28:02.754Z,20.90
2018-04-13T16:30:30.320Z,22.07
2018-04-13T16:32:57.862Z,20.90
2018-04-13T16:35:25.436Z,23.20
2018-04-13T16:37:52.959Z,24.43
2018-04-13T16:40:20.477Z,24.60
2018-04-13T16:42:48.095Z,25.47
2018-04-13T16:45:15.670Z,26.77
2018-04-13T16:47:43.186Z,25.13
2018-04-13T16:50:11.589Z,29.67
2018-04-13T16:52:39.455Z,29.70
2018-04-13T16:55:06.981Z,29.57
2018-04-13T16:57:35.293Z,31.73
2018-04-13T17:00:02.823Z,31.57
2018-04-13T17:02:31.119Z,35.60
2018-04-13T17:04:58.662Z,36.70
2018-04-13T17:07:26.959Z,36.20
2018-04-13T17:09:54.482Z,37.60
2018-04-13T17:12:22.816Z,37.63
2018-04-13T17:14:50.358Z,39.27
2018-04-13T17:17:17.887Z,40.50
2018-04-13T17:19:45.468Z,39.60
2018-04-13T17:22:13.036Z,41.13
2018-04-13T17:24:40.596Z,42.00
2018-04-13T17:27:08.146Z,42.53
2018-04-13T17:29:35.712Z,44.20
2018-04-13T17:32:03.571Z,44.70
2018-04-13T17:34:31.110Z,44.13
2018-04-13T17:36:58.653Z,47.53
2018-04-13T17:39:26.959Z,47.47
2018-04-13T17:41:54.530Z,48.53
2018-04-13T17:44:22.087Z,49.20
2018-04-13T17:46:49.601Z,51.37
2018-04-13T17:49:18.039Z,51.10
2018-04-13T17:51:45.604Z,52.73
2018-04-13T17:54:13.125Z,55.53
2018-04-13T17:56:40.711Z,57.90
2018-04-13T17:59:08.259Z,60.17
2018-04-13T18:01:35.829Z,63.47
2018-04-13T18:04:03.467Z,62.27
2018-04-13T18:06:31.038Z,63.00
2018-04-13T18:08:58.596Z,63.70
2018-04-13T18:11:26.158Z,64.87
2018-04-13T18:13:53.702Z,71.17
2018-04-13T18:16:21.237Z,64.80
2018-04-13T18:18:49.672Z,68.00
2018-04-13T18:21:17.321Z,70.85
2018-04-13T18:23:44.864Z,69.83
2018-04-13T18:26:12.435Z,71.83
2018-04-13T18:28:39.973Z,68.33
2018-04-13T18:31:07.498Z,69.13
2018-04-13T18:33:35.815Z,63.40
2018-04-13T18:36:03.348Z,58.40
2018-04-13T18:38:31.660Z,55.60
2018-04-13T18:40:59.226Z,56.13
2018-04-13T18:43:27.190Z,51.80
2018-04-13T18:45:54.716Z,50.83
2018-04-13T18:48:22.501Z,54.93
2018-04-13T18:50:50.096Z,52.73
2018-04-13T18:53:19.132Z,53.10
2018-04-13T18:55:46.719Z,53.40
2018-04-13T18:58:14.297Z,50.27
2018-04-13T19:00:41.837Z,53.70
2018-04-13T19:03:09.411Z,51.13
2018-04-13T19:05:36.953Z,51.77
2018-04-13T19:08:04.516Z,50.73
2018-04-13T19:10:32.165Z,50.00
2018-04-13T19:12:59.681Z,49.00
2018-04-13T19:15:27.970Z,49.80
2018-04-13T19:17:56.398Z,48.53
2018-04-13T19:20:23.951Z,46.40
2018-04-13T19:22:51.463Z,48.50
2018-04-13T19:25:19.786Z,48.87
2018-04-13T19:27:47.313Z,48.70
2018-04-13T19:30:14.890Z,45.90
2018-04-13T19:32:42.446Z,33.97
2018-04-13T19:35:09.986Z,46.47
2018-04-13T19:37:37.521Z,48.87
2018-04-13T19:40:05.847Z,45.70
2018-04-13T19:42:33.396Z,48.40
2018-04-13T19:45:00.926Z,48.67
2018-04-13T19:47:29.444Z,46.20
2018-04-13T19:49:56.971Z,48.30
2018-04-13T19:52:24.501Z,46.07
2018-04-13T19:54:52.107Z,45.97
2018-04-13T19:57:19.667Z,48.63
2018-04-13T19:59:47.333Z,45.83
2018-04-13T20:02:14.921Z,46.80
2018-04-13T20:04:42.458Z,44.53
2018-04-13T20:07:10.112Z,43.30
2018-04-13T20:09:37.667Z,41.93
2018-04-13T20:12:05.190Z,43.53
2018-04-13T20:14:33.519Z,42.27
2018-04-13T20:17:01.431Z,43.57
2018-04-13T20:19:29.760Z,40.50
2018-04-13T20:21:57.326Z,41.80
2018-04-13T20:24:24.885Z,40.93
2018-04-13T20:26:52.470Z,40.77
2018-04-13T20:29:21.096Z,41.87
2018-04-13T20:31:48.681Z,42.40
2018-04-13T20:34:16.211Z,40.33
2018-04-13T20:36:43.751Z,40.67
2018-04-13T20:39:12.164Z,42.10
2018-04-13T20:41:39.703Z,41.10
2018-04-13T20:44:07.284Z,41.13
2018-04-13T20:46:34.955Z,40.73
2018-04-13T20:49:02.503Z,41.13
2018-04-13T20:51:30.018Z,42.07
2018-04-13T20:53:58.442Z,43.97
2018-04-13T20:56:25.962Z,41.50
2018-04-13T20:58:54.248Z,44.40
2018-04-13T21:01:21.813Z,44.13
2018-04-13T21:03:49.337Z,41.40
2018-04-13T21:06:16.966Z,44.17
2018-04-13T21:08:44.623Z,44.27
2018-04-13T21:11:12.150Z,42.40
2018-04-13T21:13:39.741Z,42.80
2018-04-13T21:16:07.282Z,42.70
2018-04-13T21:18:34.807Z,43.10
2018-04-13T21:21:03.089Z,41.10
2018-04-13T21:23:31.493Z,41.57
2018-04-13T21:25:59.046Z,43.97
2018-04-13T21:28:26.584Z,42.97
2018-04-13T21:30:54.916Z,44.43
2018-04-13T21:33:22.563Z,45.07
2018-04-13T21:35:50.097Z,44.10
2018-04-13T21:38:17.650Z,45.33
2018-04-13T21:40:45.250Z,46.20
2018-04-13T21:43:12.796Z,45.73
2018-04-13T21:45:40.441Z,44.50
2018-04-13T21:48:07.969Z,45.87
2018-04-13T21:50:36.259Z,45.67
2018-04-13T21:53:03.843Z,46.23
2018-04-13T21:55:31.421Z,46.47
2018-04-13T21:57:58.955Z,45.07
2018-04-13T22:00:26.612Z,48.20
2018-04-13T22:02:54.144Z,47.40
2018-04-13T22:05:22.452Z,49.60
2018-04-13T22:07:50.039Z,47.80
2018-04-13T22:10:17.669Z,48.50
2018-04-13T22:12:57.193Z,48.50
2018-04-13T22:15:26.495Z,49.47
2018-04-13T22:17:54.028Z,47.70
2018-04-13T22:20:22.347Z,47.60
2018-04-13T22:22:49.897Z,47.73
2018-04-13T22:25:17.462Z,44.93
2018-04-13T22:27:45.032Z,49.77
2018-04-13T22:30:12.557Z,49.90
2018-04-13T22:32:40.352Z,47.70
2018-04-13T22:35:07.907Z,50.97
2018-04-13T22:37:35.461Z,50.10
2018-04-13T22:40:02.985Z,47.60
2018-04-13T22:42:31.485Z,50.87
2018-04-13T22:44:59.020Z,50.93
2018-04-13T22:47:27.325Z,51.57
2018-04-13T22:49:54.995Z,50.60
2018-04-13T22:52:22.649Z,52.77
2018-04-13T22:54:50.624Z,53.50
2018-04-13T22:57:18.167Z,53.27
2018-04-13T22:59:45.677Z,53.33
2018-04-13T23:02:13.196Z,56.83
2018-04-13T23:04:40.757Z,57.33
2018-04-13T23:07:08.277Z,54.37
2018-04-13T23:09:36.574Z,53.13
2018-04-13T23:12:04.129Z,51.77
2018-04-13T23:14:31.701Z,51.20
2018-04-13T23:16:59.228Z,53.20
2018-04-13T23:19:27.562Z,57.47
2018-04-13T23:21:55.102Z,54.60
2018-04-13T23:24:22.632Z,52.07
2018-04-13T23:26:50.189Z,53.80
2018-04-13T23:29:17.707Z,53.77
2018-04-13T23:31:45.217Z,53.87
2018-04-13T23:34:12.790Z,55.63
2018-04-13T23:36:40.311Z,56.30
2018-04-13T23:39:08.635Z,58.77
2018-04-13T23:41:36.202Z,57.67
2018-04-13T23:44:03.750Z,57.13
2018-04-13T23:46:31.413Z,57.70
2018-04-13T23:48:59.072Z,56.53
2018-04-13T23:51:26.585Z,57.60
2018-04-13T23:53:54.896Z,58.20
2018-04-13T23:56:22.468Z,55.90
2018-04-13T23:58:49.995Z,54.00
